createdAt,value
2023-03-15T00:00:21.357Z,0.84
2023-03-15T00:02:47.906Z,0.71
2023-03-15T00:05:14.598Z,0.84
2023-03-15T00:07:41.264Z,0.86
2023-03-15T00:10:08.344Z,1.01
2023-03-15T00:12:34.848Z,0.87
2023-03-15T00:15:01.334Z,0.99
2023-03-15T00:17:27.864Z,1.07
2023-03-15T00:19:54.353Z,1.00
2023-03-15T00:22:20.789Z,0.95
2023-03-15T00:24:47.319Z,1.22
2023-03-15T00:27:13.776Z,1.34
2023-03-15T00:29:40.272Z,1.25
2023-03-15T00:32:06.757Z,1.21
2023-03-15T00:34:33.339Z,1.20
2023-03-15T00:36:59.925Z,1.26
2023-03-15T00:39:26.648Z,1.15
2023-03-15T00:41:53.304Z,1.31
2023-03-15T00:44:19.773Z,1.26
2023-03-15T00:46:46.318Z,1.22
2023-03-15T00:49:12.844Z,1.19
2023-03-15T00:51:39.339Z,1.33
2023-03-15T00:54:05.816Z,1.07
2023-03-15T00:56:32.360Z,1.10
2023-03-15T00:58:59.107Z,1.19
2023-03-15T01:01:28.848Z,1.06
2023-03-15T01:03:55.974Z,1.12
2023-03-15T01:06:24.780Z,0.98
2023-03-15T01:08:51.620Z,0.98
2023-03-15T01:11:22.415Z,0.92
2023-03-15T01:13:48.876Z,0.97
2023-03-15T01:16:15.527Z,0.94
2023-03-15T01:18:44.492Z,0.97
2023-03-15T01:21:16.047Z,0.97
2023-03-15T01:23:42.677Z,0.94
2023-03-15T01:26:14.128Z,0.91
2023-03-15T01:28:41.252Z,0.83
2023-03-15T01:31:22.147Z,0.91
2023-03-15T01:33:48.707Z,0.96
2023-03-15T01:36:15.534Z,0.84
2023-03-15T01:38:42.281Z,0.72
2023-03-15T01:41:10.824Z,0.85
2023-03-15T01:43:37.361Z,0.73
2023-03-15T01:46:20.410Z,0.63
2023-03-15T01:48:55.816Z,0.62
2023-03-15T01:51:22.211Z,0.67
2023-03-15T01:54:15.094Z,0.78
2023-03-15T01:56:50.781Z,0.88
2023-03-15T01:59:25.806Z,0.91
2023-03-15T02:01:54.942Z,0.82
2023-03-15T02:04:30.568Z,0.82
2023-03-15T02:07:01.989Z,0.82
2023-03-15T02:09:37.739Z,0.86
2023-03-15T02:12:05.312Z,0.90
2023-03-15T02:14:33.382Z,0.86
2023-03-15T02:16:59.933Z,0.88
2023-03-15T02:19:55.694Z,0.85
2023-03-15T02:22:59.636Z,0.93
2023-03-15T02:25:41.609Z,0.98
2023-03-15T02:28:12.694Z,0.93
2023-03-15T02:30:40.033Z,0.91
2023-03-15T02:33:30.642Z,0.83
2023-03-15T02:36:09.592Z,0.80
2023-03-15T02:38:36.082Z,0.88
2023-03-15T02:41:03.560Z,0.89
2023-03-15T02:43:33.284Z,0.80
2023-03-15T02:46:02.049Z,0.76
2023-03-15T02:48:31.173Z,0.76
2023-03-15T02:50:57.646Z,0.83
2023-03-15T02:53:24.090Z,0.76
2023-03-15T02:55:50.529Z,0.71
2023-03-15T02:58:17.133Z,0.90
2023-03-15T03:00:43.590Z,0.83
2023-03-15T03:03:10.090Z,0.84
2023-03-15T03:05:36.520Z,0.87
2023-03-15T03:08:03.001Z,0.89
2023-03-15T03:10:29.739Z,0.98
2023-03-15T03:12:56.221Z,0.84
2023-03-15T03:15:22.733Z,0.80
2023-03-15T03:17:49.187Z,0.79
2023-03-15T03:20:16.134Z,0.85
2023-03-15T03:22:43.080Z,1.01
2023-03-15T03:25:09.767Z,0.97
2023-03-15T03:27:36.309Z,0.96
2023-03-15T03:30:05.368Z,0.86
2023-03-15T03:32:31.992Z,0.94
2023-03-15T03:34:58.480Z,0.80
2023-03-15T03:37:24.999Z,0.81
2023-03-15T03:39:51.882Z,0.89
2023-03-15T03:42:18.588Z,0.85
2023-03-15T03:44:45.020Z,0.80
2023-03-15T03:47:11.574Z,0.86
2023-03-15T03:49:38.060Z,0.79
2023-03-15T03:52:04.849Z,0.71
2023-03-15T03:54:31.320Z,0.82
2023-03-15T03:56:58.118Z,0.95
2023-03-15T03:59:24.622Z,0.94
2023-03-15T04:01:51.169Z,0.75
2023-03-15T04:04:17.707Z,0.76
2023-03-15T04:06:44.187Z,0.77
2023-03-15T04:09:11.157Z,0.73
2023-03-15T04:11:38.097Z,0.70
2023-03-15T04:14:04.586Z,0.82
2023-03-15T04:16:31.083Z,0.83
2023-03-15T04:18:57.562Z,0.82
2023-03-15T04:21:24.036Z,0.96
2023-03-15T04:23:50.529Z,0.94
2023-03-15T04:26:17.017Z,0.87
2023-03-15T04:28:43.547Z,1.08
2023-03-15T04:31:11.483Z,0.80
2023-03-15T04:33:37.937Z,0.88
2023-03-15T04:36:04.517Z,0.76
2023-03-15T04:38:31.014Z,0.81
2023-03-15T04:40:57.498Z,0.71
2023-03-15T04:43:23.961Z,0.79
2023-03-15T04:45:50.449Z,0.89
2023-03-15T04:48:17.082Z,0.96
2023-03-15T04:50:43.560Z,0.86
2023-03-15T04:53:10.071Z,0.85
2023-03-15T04:55:36.559Z,0.86
2023-03-15T04:58:03.005Z,0.86
2023-03-15T05:00:29.491Z,0.89
2023-03-15T05:02:55.949Z,0.83
2023-03-15T05:05:23.277Z,0.83
2023-03-15T05:07:49.733Z,1.07
2023-03-15T05:10:16.504Z,1.13
2023-03-15T05:12:42.998Z,0.89
2023-03-15T05:15:09.942Z,1.02
2023-03-15T05:17:36.456Z,1.01
2023-03-15T05:20:02.975Z,1.00
2023-03-15T05:22:29.452Z,0.85
2023-03-15T05:24:55.928Z,0.92
2023-03-15T05:27:22.401Z,0.88
2023-03-15T05:29:48.869Z,0.84
2023-03-15T05:32:15.393Z,0.97
2023-03-15T05:34:41.849Z,0.86
2023-03-15T05:37:08.596Z,0.89
2023-03-15T05:39:35.248Z,0.99
2023-03-15T05:42:01.728Z,1.11
2023-03-15T05:44:28.233Z,1.07
2023-03-15T05:46:54.710Z,1.23
2023-03-15T05:49:21.234Z,1.08
2023-03-15T05:51:47.704Z,0.99
2023-03-15T05:54:14.225Z,1.09
2023-03-15T05:56:40.797Z,1.11
2023-03-15T05:59:07.273Z,1.08
2023-03-15T06:01:33.795Z,1.13
2023-03-15T06:04:00.270Z,1.18
2023-03-15T06:06:26.870Z,1.07
2023-03-15T06:08:53.466Z,1.14
2023-03-15T06:11:19.936Z,1.21
2023-03-15T06:13:46.409Z,1.09
2023-03-15T06:16:12.935Z,1.25
2023-03-15T06:18:39.442Z,1.26
2023-03-15T06:21:06.006Z,1.20
2023-03-15T06:23:32.524Z,1.26
2023-03-15T06:25:58.992Z,1.19
2023-03-15T06:28:25.520Z,1.39
2023-03-15T06:30:52.029Z,1.36
2023-03-15T06:33:18.561Z,1.31
2023-03-15T06:35:45.033Z,1.34
2023-03-15T06:38:12.065Z,1.59
2023-03-15T06:40:38.565Z,1.56
2023-03-15T06:43:07.762Z,1.51
2023-03-15T06:45:34.236Z,1.20
2023-03-15T06:48:00.693Z,1.38
2023-03-15T06:50:29.539Z,1.25
2023-03-15T06:53:00.850Z,1.34
2023-03-15T06:55:27.368Z,1.36
2023-03-15T06:57:53.927Z,1.67
2023-03-15T07:00:20.877Z,1.68
2023-03-15T07:02:47.409Z,1.66
2023-03-15T07:05:14.824Z,1.64
2023-03-15T07:07:41.372Z,1.56
2023-03-15T07:10:08.395Z,1.56
2023-03-15T07:12:34.880Z,1.87
2023-03-15T07:15:01.461Z,1.87
2023-03-15T07:17:27.972Z,1.71
2023-03-15T07:19:56.791Z,1.75
2023-03-15T07:22:23.780Z,1.62
2023-03-15T07:24:50.340Z,1.67
2023-03-15T07:27:19.238Z,1.84
2023-03-15T07:29:45.934Z,1.14
2023-03-15T07:32:12.499Z,0.94
2023-03-15T07:34:39.163Z,0.80
2023-03-15T07:37:05.770Z,0.66
2023-03-15T07:39:32.370Z,0.73
2023-03-15T07:41:59.209Z,1.12
2023-03-15T07:44:25.731Z,1.22
2023-03-15T07:46:52.418Z,1.32
2023-03-15T07:49:18.951Z,1.16
2023-03-15T07:51:45.453Z,1.26
2023-03-15T07:54:11.935Z,1.22
2023-03-15T07:56:38.446Z,1.00
2023-03-15T07:59:04.942Z,1.05
2023-03-15T08:01:31.529Z,0.85
2023-03-15T08:03:58.004Z,1.04
2023-03-15T08:06:24.484Z,0.94
2023-03-15T08:08:51.125Z,0.96
2023-03-15T08:11:17.625Z,1.09
2023-03-15T08:13:44.113Z,1.03
2023-03-15T08:16:10.648Z,1.16
2023-03-15T08:18:37.156Z,1.27
2023-03-15T08:21:03.638Z,1.37
2023-03-15T08:23:30.128Z,1.48
2023-03-15T08:25:57.113Z,1.42
2023-03-15T08:28:23.582Z,3.21
2023-03-15T08:30:50.049Z,5.59
2023-03-15T08:33:16.529Z,4.92
2023-03-15T08:35:43.066Z,4.84
2023-03-15T08:38:09.820Z,2.54
2023-03-15T08:40:37.766Z,2.21
2023-03-15T08:43:05.337Z,2.77
2023-03-15T08:45:37.460Z,1.29
2023-03-15T08:48:09.423Z,1.15
2023-03-15T08:50:35.955Z,1.68
2023-03-15T08:53:02.420Z,2.24
2023-03-15T08:55:28.971Z,1.36
2023-03-15T08:57:55.428Z,1.51
2023-03-15T09:00:22.209Z,1.21
2023-03-15T09:02:50.242Z,1.06
2023-03-15T09:05:16.943Z,0.95
2023-03-15T09:07:44.706Z,2.10
2023-03-15T09:10:13.809Z,1.89
2023-03-15T09:12:42.269Z,1.59
2023-03-15T09:15:09.301Z,1.31
2023-03-15T09:17:35.795Z,1.63
2023-03-15T09:20:02.271Z,1.04
2023-03-15T09:22:38.879Z,1.19
2023-03-15T09:25:06.763Z,1.34
2023-03-15T09:27:34.015Z,1.34
2023-03-15T09:30:00.524Z,1.06
2023-03-15T09:32:27.491Z,0.79
2023-03-15T09:34:54.016Z,1.35
2023-03-15T09:37:20.664Z,1.50
2023-03-15T09:39:47.809Z,0.80
2023-03-15T09:42:30.129Z,0.72
2023-03-15T09:45:22.894Z,0.80
2023-03-15T09:48:24.444Z,0.83
2023-03-15T09:51:08.973Z,0.81
2023-03-15T09:54:07.783Z,1.39
2023-03-15T09:56:39.613Z,0.85
2023-03-15T09:59:06.775Z,0.87
2023-03-15T10:01:40.493Z,0.95
2023-03-15T10:04:29.390Z,1.72
2023-03-15T10:06:59.947Z,1.61
2023-03-15T10:09:31.748Z,1.00
2023-03-15T10:12:12.417Z,0.73
2023-03-15T10:15:03.188Z,0.91
2023-03-15T10:17:52.538Z,0.94
2023-03-15T10:20:24.854Z,0.89
2023-03-15T10:23:01.244Z,1.09
2023-03-15T10:25:30.395Z,0.96
2023-03-15T10:28:05.214Z,1.18
2023-03-15T10:30:35.653Z,1.18
2023-03-15T10:33:04.065Z,1.75
2023-03-15T10:35:31.078Z,1.19
2023-03-15T10:37:58.771Z,1.03
2023-03-15T10:40:43.796Z,1.08
2023-03-15T10:43:18.432Z,1.14
2023-03-15T10:45:57.771Z,1.50
2023-03-15T10:48:24.229Z,1.11
2023-03-15T10:50:51.454Z,1.55
2023-03-15T10:53:20.062Z,1.05
2023-03-15T10:55:46.556Z,0.84
2023-03-15T10:58:28.564Z,0.96
2023-03-15T11:01:06.101Z,0.89
2023-03-15T11:03:34.037Z,0.93
2023-03-15T11:06:01.676Z,0.94
2023-03-15T11:08:41.839Z,0.91
2023-03-15T11:11:09.785Z,0.94
2023-03-15T11:13:39.237Z,0.82
2023-03-15T11:16:21.265Z,1.03
2023-03-15T11:19:16.026Z,1.26
2023-03-15T11:21:44.954Z,1.00
2023-03-15T11:24:28.032Z,1.08
2023-03-15T11:26:58.408Z,1.17
2023-03-15T11:29:35.163Z,0.97
2023-03-15T11:32:12.120Z,1.01
2023-03-15T11:34:48.084Z,0.82
2023-03-15T11:37:21.755Z,0.93
2023-03-15T11:40:08.889Z,0.82
2023-03-15T11:43:05.485Z,0.84
2023-03-15T11:45:42.578Z,0.89
2023-03-15T11:48:23.231Z,0.67
2023-03-15T11:50:53.538Z,0.78
2023-03-15T11:53:24.129Z,0.67
2023-03-15T11:55:51.978Z,0.50
2023-03-15T11:58:33.001Z,0.80
2023-03-15T12:01:07.141Z,0.97
2023-03-15T12:03:39.454Z,0.80
2023-03-15T12:06:11.877Z,1.53
2023-03-15T12:08:50.442Z,1.41
2023-03-15T12:11:19.864Z,0.74
2023-03-15T12:14:01.410Z,0.78
2023-03-15T12:16:31.312Z,1.18
2023-03-15T12:19:01.184Z,0.98
2023-03-15T12:21:46.213Z,1.11
2023-03-15T12:24:38.303Z,0.68
2023-03-15T12:27:15.537Z,0.81
2023-03-15T12:29:45.917Z,0.71
2023-03-15T12:32:18.401Z,0.76
2023-03-15T12:34:57.609Z,0.95
2023-03-15T12:37:38.409Z,0.48
2023-03-15T12:40:16.995Z,0.54
2023-03-15T12:42:43.465Z,0.72
2023-03-15T12:45:15.985Z,0.60
2023-03-15T12:47:51.453Z,0.52
2023-03-15T12:50:36.632Z,0.79
2023-03-15T12:53:22.564Z,1.04
2023-03-15T12:55:54.115Z,1.05
2023-03-15T12:58:36.880Z,0.74
2023-03-15T13:01:07.393Z,0.57
2023-03-15T13:03:35.816Z,0.54
2023-03-15T13:06:04.290Z,0.44
2023-03-15T13:09:01.259Z,0.48
2023-03-15T13:12:00.717Z,0.61
2023-03-15T13:14:43.968Z,0.63
2023-03-15T13:17:30.651Z,0.70
2023-03-15T13:20:26.477Z,0.45
2023-03-15T13:23:13.258Z,0.61
2023-03-15T13:26:08.952Z,0.64
2023-03-15T13:28:46.123Z,0.54
2023-03-15T13:31:23.542Z,0.58
2023-03-15T13:33:56.631Z,0.60
2023-03-15T13:36:46.653Z,0.55
2023-03-15T13:39:22.949Z,0.57
2023-03-15T13:42:16.453Z,0.62
2023-03-15T13:44:43.112Z,0.48
2023-03-15T13:47:19.954Z,0.54
2023-03-15T13:49:46.442Z,0.52
2023-03-15T13:52:13.393Z,0.55
2023-03-15T13:54:41.534Z,0.52
2023-03-15T13:57:15.208Z,0.99
2023-03-15T13:59:50.140Z,1.66
2023-03-15T14:02:22.149Z,1.13
2023-03-15T14:04:56.411Z,2.76
2023-03-15T14:07:36.571Z,1.70
2023-03-15T14:10:33.793Z,1.59
2023-03-15T14:13:29.589Z,0.78
2023-03-15T14:16:05.674Z,0.88
2023-03-15T14:18:38.179Z,0.71
2023-03-15T14:21:18.212Z,1.04
2023-03-15T14:23:48.081Z,0.60
2023-03-15T14:26:26.585Z,0.55
2023-03-15T14:29:18.006Z,0.68
2023-03-15T14:31:50.357Z,0.61
2023-03-15T14:34:45.849Z,0.53
2023-03-15T14:37:39.405Z,1.88
2023-03-15T14:40:15.407Z,0.54
2023-03-15T14:42:45.415Z,0.56
2023-03-15T14:45:12.720Z,0.47
2023-03-15T14:47:56.025Z,0.61
2023-03-15T14:50:26.534Z,0.57
2023-03-15T14:52:53.696Z,0.40
2023-03-15T14:55:24.277Z,0.44
2023-03-15T14:57:50.871Z,0.44
2023-03-15T15:00:18.918Z,0.75
2023-03-15T15:02:49.873Z,0.49
2023-03-15T15:05:20.353Z,0.44
2023-03-15T15:07:47.126Z,0.35
2023-03-15T15:10:13.673Z,0.43
2023-03-15T15:12:40.203Z,0.42
2023-03-15T15:15:15.356Z,0.31
2023-03-15T15:17:41.821Z,0.50
2023-03-15T15:20:09.020Z,0.34
2023-03-15T15:22:35.538Z,0.44
2023-03-15T15:25:06.381Z,0.93
2023-03-15T15:27:32.900Z,0.62
2023-03-15T15:29:59.434Z,0.50
2023-03-15T15:32:26.050Z,0.54
2023-03-15T15:34:52.587Z,0.89
2023-03-15T15:37:19.111Z,1.22
2023-03-15T15:39:45.643Z,0.76
2023-03-15T15:42:12.177Z,0.69
2023-03-15T15:44:38.651Z,0.58
2023-03-15T15:47:05.299Z,0.58
2023-03-15T15:49:31.783Z,0.65
2023-03-15T15:51:58.291Z,0.24
2023-03-15T15:54:28.619Z,0.41
2023-03-15T15:57:01.017Z,0.52
2023-03-15T15:59:27.532Z,0.56
2023-03-15T16:02:03.128Z,0.47
2023-03-15T16:04:30.123Z,0.65
2023-03-15T16:07:02.452Z,0.56
2023-03-15T16:09:33.021Z,0.60
2023-03-15T16:11:59.524Z,0.59
2023-03-15T16:14:26.380Z,0.59
2023-03-15T16:16:52.889Z,0.46
2023-03-15T16:19:19.336Z,0.44
2023-03-15T16:21:49.699Z,0.49
2023-03-15T16:24:28.248Z,0.40
2023-03-15T16:27:04.536Z,0.42
2023-03-15T16:29:46.299Z,0.40
2023-03-15T16:32:29.774Z,0.49
2023-03-15T16:35:01.083Z,0.45
2023-03-15T16:37:31.851Z,0.49
2023-03-15T16:40:01.480Z,0.70
2023-03-15T16:42:28.032Z,0.73
2023-03-15T16:44:54.514Z,0.58
2023-03-15T16:47:20.989Z,0.65
2023-03-15T16:49:47.596Z,0.55
2023-03-15T16:52:15.714Z,0.65
2023-03-15T16:54:43.089Z,0.50
2023-03-15T16:57:16.297Z,0.66
2023-03-15T16:59:42.761Z,0.66
2023-03-15T17:02:18.590Z,0.72
2023-03-15T17:04:45.782Z,0.81
2023-03-15T17:07:12.408Z,0.94
2023-03-15T17:09:38.910Z,0.92
2023-03-15T17:12:06.125Z,0.89
2023-03-15T17:14:33.297Z,0.71
2023-03-15T17:16:59.777Z,0.92
2023-03-15T17:19:26.324Z,0.95
2023-03-15T17:21:53.448Z,1.18
2023-03-15T17:24:20.019Z,1.10
2023-03-15T17:26:46.828Z,1.03
2023-03-15T17:29:15.731Z,0.80
2023-03-15T17:31:42.678Z,0.98
2023-03-15T17:34:10.902Z,1.23
2023-03-15T17:36:37.901Z,1.09
2023-03-15T17:39:06.212Z,1.39
2023-03-15T17:41:41.851Z,1.58
2023-03-15T17:44:10.603Z,1.27
2023-03-15T17:46:37.152Z,1.41
2023-03-15T17:49:04.772Z,1.37
2023-03-15T17:51:35.273Z,1.45
2023-03-15T17:54:02.027Z,1.22
2023-03-15T17:56:29.480Z,1.20
2023-03-15T17:58:56.119Z,1.46
2023-03-15T18:01:26.358Z,2.36
2023-03-15T18:03:54.078Z,1.72
2023-03-15T18:06:21.789Z,1.96
2023-03-15T18:08:49.575Z,4.81
2023-03-15T18:11:32.777Z,5.14
2023-03-15T18:13:59.870Z,2.95
2023-03-15T18:16:26.529Z,1.92
2023-03-15T18:18:53.018Z,1.55
2023-03-15T18:21:23.133Z,1.55
2023-03-15T18:23:50.918Z,1.52
2023-03-15T18:26:18.956Z,1.47
2023-03-15T18:28:46.404Z,1.53
2023-03-15T18:31:15.516Z,1.79
2023-03-15T18:33:42.141Z,1.90
2023-03-15T18:36:09.423Z,1.98
2023-03-15T18:38:36.008Z,1.58
2023-03-15T18:41:02.526Z,1.34
2023-03-15T18:43:29.285Z,1.31
2023-03-15T18:45:55.850Z,1.54
2023-03-15T18:48:34.297Z,1.51
2023-03-15T18:51:09.835Z,1.62
2023-03-15T18:53:36.308Z,1.82
2023-03-15T18:56:02.791Z,1.43
2023-03-15T18:58:29.272Z,1.33
2023-03-15T19:00:56.139Z,1.46
2023-03-15T19:03:22.676Z,1.36
2023-03-15T19:05:49.168Z,1.40
2023-03-15T19:08:15.788Z,1.47
2023-03-15T19:10:42.275Z,1.57
2023-03-15T19:13:08.792Z,1.87
2023-03-15T19:15:35.350Z,1.79
2023-03-15T19:18:02.052Z,1.83
2023-03-15T19:20:28.690Z,1.80
2023-03-15T19:22:55.256Z,2.16
2023-03-15T19:25:21.758Z,2.50
2023-03-15T19:27:48.344Z,2.10
2023-03-15T19:30:17.482Z,1.79
2023-03-15T19:32:45.809Z,1.67
2023-03-15T19:35:12.351Z,1.64
2023-03-15T19:37:38.845Z,1.55
2023-03-15T19:40:05.889Z,1.61
2023-03-15T19:42:32.368Z,1.58
2023-03-15T19:44:58.845Z,1.61
2023-03-15T19:47:25.307Z,1.52
2023-03-15T19:49:51.751Z,1.69
2023-03-15T19:52:18.264Z,1.90
2023-03-15T19:54:44.743Z,1.69
2023-03-15T19:57:11.364Z,1.80
2023-03-15T19:59:38.818Z,1.99
2023-03-15T20:02:07.268Z,2.14
2023-03-15T20:04:33.747Z,1.71
2023-03-15T20:07:00.222Z,1.36
2023-03-15T20:09:26.923Z,1.41
2023-03-15T20:11:53.411Z,1.41
2023-03-15T20:14:20.037Z,1.41
2023-03-15T20:16:46.985Z,1.49
2023-03-15T20:19:13.840Z,1.29
2023-03-15T20:21:40.317Z,1.21
2023-03-15T20:24:07.021Z,1.34
2023-03-15T20:26:33.520Z,1.49
2023-03-15T20:28:59.990Z,1.17
2023-03-15T20:31:26.541Z,1.33
2023-03-15T20:33:53.329Z,1.37
2023-03-15T20:36:20.057Z,1.43
2023-03-15T20:38:46.506Z,1.25
2023-03-15T20:41:12.984Z,1.33
2023-03-15T20:43:41.265Z,1.16
2023-03-15T20:46:07.809Z,1.54
2023-03-15T20:48:36.081Z,1.40
2023-03-15T20:51:03.662Z,1.55
2023-03-15T20:53:32.607Z,1.42
2023-03-15T20:55:59.298Z,1.50
2023-03-15T20:58:28.946Z,1.61
2023-03-15T21:01:07.548Z,1.64
2023-03-15T21:03:35.263Z,1.65
2023-03-15T21:06:06.071Z,1.45
2023-03-15T21:08:34.078Z,1.47
2023-03-15T21:11:01.628Z,1.33
2023-03-15T21:13:28.298Z,1.42
2023-03-15T21:15:54.850Z,1.22
2023-03-15T21:18:23.507Z,1.28
2023-03-15T21:21:00.880Z,1.26
2023-03-15T21:23:29.185Z,1.34
2023-03-15T21:25:55.699Z,1.49
2023-03-15T21:28:23.099Z,1.73
2023-03-15T21:30:54.213Z,1.87
2023-03-15T21:33:22.536Z,1.46
2023-03-15T21:35:49.366Z,1.76
2023-03-15T21:38:16.400Z,2.49
2023-03-15T21:40:44.858Z,2.39
2023-03-15T21:43:11.500Z,1.73
2023-03-15T21:45:38.103Z,1.65
2023-03-15T21:48:04.897Z,1.44
2023-03-15T21:50:31.404Z,1.58
2023-03-15T21:52:58.004Z,1.54
2023-03-15T21:55:24.577Z,1.43
2023-03-15T21:57:51.032Z,1.66
2023-03-15T22:00:18.277Z,1.62
2023-03-15T22:02:45.538Z,1.68
2023-03-15T22:05:13.281Z,1.68
2023-03-15T22:07:41.349Z,1.49
2023-03-15T22:10:09.709Z,1.53
2023-03-15T22:12:37.019Z,1.27
2023-03-15T22:15:06.203Z,1.24
2023-03-15T22:17:33.540Z,1.35
2023-03-15T22:20:00.118Z,1.38
2023-03-15T22:22:26.594Z,1.30
2023-03-15T22:24:53.133Z,1.21
2023-03-15T22:27:19.651Z,1.27
2023-03-15T22:29:46.128Z,1.13
2023-03-15T22:32:12.779Z,0.96
2023-03-15T22:34:39.272Z,0.90
2023-03-15T22:37:05.803Z,1.01
2023-03-15T22:39:32.239Z,1.02
2023-03-15T22:41:58.777Z,1.19
2023-03-15T22:44:25.287Z,1.08
2023-03-15T22:46:52.111Z,1.27
2023-03-15T22:49:18.713Z,1.55
2023-03-15T22:51:45.249Z,1.31
2023-03-15T22:54:11.764Z,1.48
2023-03-15T22:56:39.982Z,1.84
2023-03-15T22:59:07.488Z,2.03
2023-03-15T23:01:34.066Z,1.98
2023-03-15T23:04:00.617Z,1.79
2023-03-15T23:06:27.084Z,1.93
2023-03-15T23:08:53.713Z,1.92
2023-03-15T23:11:20.231Z,1.78
2023-03-15T23:13:46.720Z,1.73
2023-03-15T23:16:13.245Z,1.82
2023-03-15T23:18:39.749Z,1.51
2023-03-15T23:21:08.582Z,1.50
2023-03-15T23:23:35.233Z,1.53
2023-03-15T23:26:02.490Z,1.53
2023-03-15T23:28:29.205Z,1.53
2023-03-15T23:31:03.871Z,1.55
2023-03-15T23:33:31.120Z,1.74
2023-03-15T23:35:57.703Z,1.74
2023-03-15T23:38:24.276Z,1.67
2023-03-15T23:40:55.815Z,1.86
2023-03-15T23:43:22.761Z,1.63
2023-03-15T23:45:55.198Z,1.69
2023-03-15T23:48:21.723Z,1.78
2023-03-15T23:51:06.418Z,1.96
2023-03-15T23:53:32.929Z,1.79
2023-03-15T23:55:59.680Z,1.78
2023-03-15T23:58:26.173Z,1.92
